sensor_id;sensor_type;location;lat;lon;timestamp;pressure;altitude;pressure_sealevel;temperature
14023;BMP180;7086;48.116;11.580;2022-07-19T01:37:03;95906.00;;;23.40
14023;BMP180;7086;48.116;11.580;2022-07-19T01:39:45;95909.00;;;23.40
14023;BMP180;7086;48.116;11.580;2022-07-19T01:42:27;95914.00;;;23.30
14023;BMP180;7086;48.116;11.580;2022-07-19T01:45:11;95909.00;;;23.30
14023;BMP180;7086;48.116;11.580;2022-07-19T01:47:54;95909.00;;;23.30
14023;BMP180;7086;48.116;11.580;2022-07-19T01:50:36;95908.00;;;23.30
14023;BMP180;7086;48.116;11.580;2022-07-19T03:04:27;95861.00;;;22.40
14023;BMP180;7086;48.116;11.580;2022-07-19T03:06:55;95860.00;;;22.40
14023;BMP180;7086;48.116;11.580;2022-07-19T03:09:32;95857.00;;;22.30
14023;BMP180;7086;48.116;11.580;2022-07-19T03:12:01;95852.00;;;22.30
14023;BMP180;7086;48.116;11.580;2022-07-19T03:14:28;95855.00;;;22.30
14023;BMP180;7086;48.116;11.580;2022-07-19T03:16:56;95860.00;;;22.20
14023;BMP180;7086;48.116;11.580;2022-07-19T03:19:28;95863.00;;;22.20
14023;BMP180;7086;48.116;11.580;2022-07-19T03:21:56;95868.00;;;22.10
14023;BMP180;7086;48.116;11.580;2022-07-19T03:24:24;95869.00;;;22.10
14023;BMP180;7086;48.116;11.580;2022-07-19T03:26:52;95861.00;;;22.00
14023;BMP180;7086;48.116;11.580;2022-07-19T03:29:20;95861.00;;;22.00
14023;BMP180;7086;48.116;11.580;2022-07-19T03:31:48;95860.00;;;22.00
14023;BMP180;7086;48.116;11.580;2022-07-19T03:34:17;95860.00;;;22.00
14023;BMP180;7086;48.116;11.580;2022-07-19T03:36:49;95861.00;;;21.90
14023;BMP180;7086;48.116;11.580;2022-07-19T03:39:19;95861.00;;;21.90
14023;BMP180;7086;48.116;11.580;2022-07-19T03:41:47;95865.00;;;21.80
14023;BMP180;7086;48.116;11.580;2022-07-19T03:44:15;95857.00;;;21.80
14023;BMP180;7086;48.116;11.580;2022-07-19T03:46:43;95858.00;;;21.80
14023;BMP180;7086;48.116;11.580;2022-07-19T03:49:12;95855.00;;;21.80
14023;BMP180;7086;48.116;11.580;2022-07-19T03:51:40;95846.00;;;21.80
14023;BMP180;7086;48.116;11.580;2022-07-19T03:54:10;95851.00;;;21.80
14023;BMP180;7086;48.116;11.580;2022-07-19T03:56:51;95850.00;;;21.80
14023;BMP180;7086;48.116;11.580;2022-07-19T03:59:18;95851.00;;;21.90
14023;BMP180;7086;48.116;11.580;2022-07-19T04:01:48;95855.00;;;21.80
14023;BMP180;7086;48.116;11.580;2022-07-19T04:04:16;95861.00;;;21.90
14023;BMP180;7086;48.116;11.580;2022-07-19T04:06:45;95861.00;;;21.90
14023;BMP180;7086;48.116;11.580;2022-07-19T04:09:14;95855.00;;;22.00
14023;BMP180;7086;48.116;11.580;2022-07-19T04:11:42;95855.00;;;22.00
14023;BMP180;7086;48.116;11.580;2022-07-19T04:14:13;95861.00;;;22.10
14023;BMP180;7086;48.116;11.580;2022-07-19T04:16:42;95868.00;;;22.10
14023;BMP180;7086;48.116;11.580;2022-07-19T04:19:10;95877.00;;;22.10
14023;BMP180;7086;48.116;11.580;2022-07-19T04:21:38;95863.00;;;22.20
14023;BMP180;7086;48.116;11.580;2022-07-19T04:24:45;95862.00;;;22.20
14023;BMP180;7086;48.116;11.580;2022-07-19T04:27:14;95857.00;;;22.20
14023;BMP180;7086;48.116;11.580;2022-07-19T04:29:43;95855.00;;;22.20
14023;BMP180;7086;48.116;11.580;2022-07-19T04:32:18;95862.00;;;22.30
14023;BMP180;7086;48.116;11.580;2022-07-19T04:35:04;95858.00;;;22.30
14023;BMP180;7086;48.116;11.580;2022-07-19T04:41:25;95847.00;;;22.40
14023;BMP180;7086;48.116;11.580;2022-07-19T04:44:28;95849.00;;;22.40
14023;BMP180;7086;48.116;11.580;2022-07-19T04:55:44;95848.00;;;22.50
14023;BMP180;7086;48.116;11.580;2022-07-19T05:14:54;95860.00;;;23.00
14023;BMP180;7086;48.116;11.580;2022-07-19T05:23:23;95861.00;;;23.30
14023;BMP180;7086;48.116;11.580;2022-07-19T05:26:16;95855.00;;;23.40
14023;BMP180;7086;48.116;11.580;2022-07-19T05:29:31;95853.00;;;23.60
14023;BMP180;7086;48.116;11.580;2022-07-19T08:23:25;95845.00;;;38.70
14023;BMP180;7086;48.116;11.580;2022-07-19T08:25:53;95846.00;;;38.60
14023;BMP180;7086;48.116;11.580;2022-07-19T08:28:22;95839.00;;;38.40
14023;BMP180;7086;48.116;11.580;2022-07-19T08:31:06;95846.00;;;38.30
14023;BMP180;7086;48.116;11.580;2022-07-19T08:34:03;95838.00;;;38.30
14023;BMP180;7086;48.116;11.580;2022-07-19T09:34:18;95831.00;;;38.80
14023;BMP180;7086;48.116;11.580;2022-07-19T09:55:42;95815.00;;;39.40
14023;BMP180;7086;48.116;11.580;2022-07-19T11:44:49;95737.00;;;39.60
14023;BMP180;7086;48.116;11.580;2022-07-19T11:47:28;95723.00;;;39.30
14023;BMP180;7086;48.116;11.580;2022-07-19T12:11:39;95720.00;;;37.30
14023;BMP180;7086;48.116;11.580;2022-07-19T12:14:52;95708.00;;;37.20
14023;BMP180;7086;48.116;11.580;2022-07-19T12:42:13;95671.00;;;36.60
14023;BMP180;7086;48.116;11.580;2022-07-19T12:47:50;95672.00;;;36.60
14023;BMP180;7086;48.116;11.580;2022-07-19T13:00:53;95662.00;;;36.60
14023;BMP180;7086;48.116;11.580;2022-07-19T13:03:36;95673.00;;;36.70
14023;BMP180;7086;48.116;11.580;2022-07-19T13:43:17;95633.00;;;37.30
14023;BMP180;7086;48.116;11.580;2022-07-19T13:45:55;95634.00;;;37.30
14023;BMP180;7086;48.116;11.580;2022-07-19T13:48:48;95631.00;;;37.30
14023;BMP180;7086;48.116;11.580;2022-07-19T13:51:21;95637.00;;;37.30
14023;BMP180;7086;48.116;11.580;2022-07-19T14:11:14;95613.00;;;37.40
14023;BMP180;7086;48.116;11.580;2022-07-19T14:13:43;95610.00;;;37.40
14023;BMP180;7086;48.116;11.580;2022-07-19T14:16:47;95612.00;;;37.40
14023;BMP180;7086;48.116;11.580;2022-07-19T14:19:30;95614.00;;;37.40
14023;BMP180;7086;48.116;11.580;2022-07-19T14:22:01;95602.00;;;37.40
14023;BMP180;7086;48.116;11.580;2022-07-19T14:24:44;95605.00;;;37.40
14023;BMP180;7086;48.116;11.580;2022-07-19T14:27:29;95614.00;;;37.40
14023;BMP180;7086;48.116;11.580;2022-07-19T14:30:02;95609.00;;;37.40
14023;BMP180;7086;48.116;11.580;2022-07-19T14:32:45;95604.00;;;37.40
14023;BMP180;7086;48.116;11.580;2022-07-19T14:35:14;95602.00;;;37.40
14023;BMP180;7086;48.116;11.580;2022-07-19T14:37:52;95596.00;;;37.30
14023;BMP180;7086;48.116;11.580;2022-07-19T14:40:32;95603.00;;;37.30
14023;BMP180;7086;48.116;11.580;2022-07-19T14:43:01;95604.00;;;37.20
14023;BMP180;7086;48.116;11.580;2022-07-19T14:45:30;95605.00;;;37.10
14023;BMP180;7086;48.116;11.580;2022-07-19T14:48:00;95602.00;;;37.10
14023;BMP180;7086;48.116;11.580;2022-07-19T14:50:35;95598.00;;;37.10
14023;BMP180;7086;48.116;11.580;2022-07-19T14:53:18;95601.00;;;37.10
14023;BMP180;7086;48.116;11.580;2022-07-19T14:55:50;95599.00;;;37.10
14023;BMP180;7086;48.116;11.580;2022-07-19T14:58:49;95599.00;;;37.00
14023;BMP180;7086;48.116;11.580;2022-07-19T15:01:19;95594.00;;;37.00
14023;BMP180;7086;48.116;11.580;2022-07-19T15:03:59;95589.00;;;37.00
14023;BMP180;7086;48.116;11.580;2022-07-19T15:06:29;95590.00;;;37.00
14023;BMP180;7086;48.116;11.580;2022-07-19T15:11:35;95592.00;;;36.90
14023;BMP180;7086;48.116;11.580;2022-07-19T15:14:05;95591.00;;;36.80
14023;BMP180;7086;48.116;11.580;2022-07-19T15:16:35;95576.00;;;36.80
14023;BMP180;7086;48.116;11.580;2022-07-19T15:19:16;95576.00;;;36.80
14023;BMP180;7086;48.116;11.580;2022-07-19T15:21:45;95577.00;;;36.80
14023;BMP180;7086;48.116;11.580;2022-07-19T15:24:28;95581.00;;;36.70
14023;BMP180;7086;48.116;11.580;2022-07-19T15:26:58;95580.00;;;36.70
14023;BMP180;7086;48.116;11.580;2022-07-19T15:29:32;95578.00;;;36.80
14023;BMP180;7086;48.116;11.580;2022-07-19T15:32:13;95586.00;;;36.80
14023;BMP180;7086;48.116;11.580;2022-07-19T15:37:22;95573.00;;;36.80
14023;BMP180;7086;48.116;11.580;2022-07-19T15:39:54;95570.00;;;36.80
14023;BMP180;7086;48.116;11.580;2022-07-19T15:42:22;95566.00;;;36.80
14023;BMP180;7086;48.116;11.580;2022-07-19T15:45:11;95587.00;;;36.80
14023;BMP180;7086;48.116;11.580;2022-07-19T15:47:53;95573.00;;;36.80
14023;BMP180;7086;48.116;11.580;2022-07-19T15:50:24;95567.00;;;36.70
14023;BMP180;7086;48.116;11.580;2022-07-19T15:53:07;95569.00;;;36.70
14023;BMP180;7086;48.116;11.580;2022-07-19T15:55:38;95563.00;;;36.60
14023;BMP180;7086;48.116;11.580;2022-07-19T15:58:23;95546.00;;;36.50
14023;BMP180;7086;48.116;11.580;2022-07-19T16:01:25;95560.00;;;36.40
14023;BMP180;7086;48.116;11.580;2022-07-19T16:04:07;95561.00;;;36.40
14023;BMP180;7086;48.116;11.580;2022-07-19T16:06:39;95568.00;;;36.30
14023;BMP180;7086;48.116;11.580;2022-07-19T16:09:07;95553.00;;;36.30
14023;BMP180;7086;48.116;11.580;2022-07-19T16:11:41;95563.00;;;36.20
14023;BMP180;7086;48.116;11.580;2022-07-19T16:14:29;95563.00;;;36.20
14023;BMP180;7086;48.116;11.580;2022-07-19T16:25:37;95555.00;;;36.30
14023;BMP180;7086;48.116;11.580;2022-07-19T16:29:36;95554.00;;;36.40
14023;BMP180;7086;48.116;11.580;2022-07-19T16:32:08;95550.00;;;36.50
14023;BMP180;7086;48.116;11.580;2022-07-19T16:38:20;95548.00;;;36.70
14023;BMP180;7086;48.116;11.580;2022-07-19T16:41:28;95552.00;;;36.70
14023;BMP180;7086;48.116;11.580;2022-07-19T16:47:28;95543.00;;;36.70
14023;BMP180;7086;48.116;11.580;2022-07-19T16:50:12;95548.00;;;36.60
14023;BMP180;7086;48.116;11.580;2022-07-19T16:53:05;95546.00;;;36.60
14023;BMP180;7086;48.116;11.580;2022-07-19T16:55:36;95542.00;;;36.50
14023;BMP180;7086;48.116;11.580;2022-07-19T16:58:32;95549.00;;;36.40
14023;BMP180;7086;48.116;11.580;2022-07-19T17:01:07;95555.00;;;36.40
14023;BMP180;7086;48.116;11.580;2022-07-19T17:03:49;95556.00;;;36.40
14023;BMP180;7086;48.116;11.580;2022-07-19T17:06:46;95556.00;;;36.30
14023;BMP180;7086;48.116;11.580;2022-07-19T17:09:35;95547.00;;;36.30
14023;BMP180;7086;48.116;11.580;2022-07-19T17:12:13;95556.00;;;36.20
14023;BMP180;7086;48.116;11.580;2022-07-19T17:21:32;95555.00;;;35.80
14023;BMP180;7086;48.116;11.580;2022-07-19T17:24:17;95561.00;;;35.70
14023;BMP180;7086;48.116;11.580;2022-07-19T17:27:02;95563.00;;;35.50
14023;BMP180;7086;48.116;11.580;2022-07-19T17:29:39;95557.00;;;35.40
14023;BMP180;7086;48.116;11.580;2022-07-19T17:32:15;95559.00;;;35.30
14023;BMP180;7086;48.116;11.580;2022-07-19T17:35:34;95570.00;;;35.20
14023;BMP180;7086;48.116;11.580;2022-07-19T17:42:11;95559.00;;;35.00
14023;BMP180;7086;48.116;11.580;2022-07-19T17:44:43;95557.00;;;35.00
14023;BMP180;7086;48.116;11.580;2022-07-19T17:47:22;95546.00;;;34.90
14023;BMP180;7086;48.116;11.580;2022-07-19T17:49:53;95562.00;;;34.90
14023;BMP180;7086;48.116;11.580;2022-07-19T17:52:24;95562.00;;;34.80
14023;BMP180;7086;48.116;11.580;2022-07-19T17:55:01;95557.00;;;34.70
14023;BMP180;7086;48.116;11.580;2022-07-19T17:57:33;95564.00;;;34.70
14023;BMP180;7086;48.116;11.580;2022-07-19T18:00:10;95552.00;;;34.60
14023;BMP180;7086;48.116;11.580;2022-07-19T18:02:52;95536.00;;;34.50
14023;BMP180;7086;48.116;11.580;2022-07-19T18:05:27;95559.00;;;34.40
14023;BMP180;7086;48.116;11.580;2022-07-19T18:08:12;95557.00;;;34.30
14023;BMP180;7086;48.116;11.580;2022-07-19T18:10:53;95558.00;;;34.20
14023;BMP180;7086;48.116;11.580;2022-07-19T18:13:37;95557.00;;;34.20
14023;BMP180;7086;48.116;11.580;2022-07-19T18:16:21;95559.00;;;34.10
14023;BMP180;7086;48.116;11.580;2022-07-19T18:18:50;95554.00;;;34.10
14023;BMP180;7086;48.116;11.580;2022-07-19T18:21:21;95554.00;;;34.00
14023;BMP180;7086;48.116;11.580;2022-07-19T18:24:22;95560.00;;;33.90
14023;BMP180;7086;48.116;11.580;2022-07-19T18:27:01;95551.00;;;33.80
14023;BMP180;7086;48.116;11.580;2022-07-19T18:29:49;95548.00;;;33.70
14023;BMP180;7086;48.116;11.580;2022-07-19T18:43:06;95556.00;;;33.40
14023;BMP180;7086;48.116;11.580;2022-07-19T19:02:08;95567.00;;;32.90
14023;BMP180;7086;48.116;11.580;2022-07-19T19:04:54;95564.00;;;32.80
14023;BMP180;7086;48.116;11.580;2022-07-19T19:07:25;95557.00;;;32.70
14023;BMP180;7086;48.116;11.580;2022-07-19T19:10:08;95563.00;;;32.60
14023;BMP180;7086;48.116;11.580;2022-07-19T19:13:10;95563.00;;;32.50
14023;BMP180;7086;48.116;11.580;2022-07-19T19:20:53;95567.00;;;32.30
14023;BMP180;7086;48.116;11.580;2022-07-19T19:23:26;95568.00;;;32.30
14023;BMP180;7086;48.116;11.580;2022-07-19T19:26:08;95564.00;;;32.20
14023;BMP180;7086;48.116;11.580;2022-07-19T19:28:50;95563.00;;;32.10
14023;BMP180;7086;48.116;11.580;2022-07-19T19:31:37;95568.00;;;32.00
14023;BMP180;7086;48.116;11.580;2022-07-19T19:34:19;95567.00;;;31.90
14023;BMP180;7086;48.116;11.580;2022-07-19T19:40:17;95572.00;;;31.80
14023;BMP180;7086;48.116;11.580;2022-07-19T19:43:09;95580.00;;;31.70
14023;BMP180;7086;48.116;11.580;2022-07-19T19:46:11;95575.00;;;31.60
14023;BMP180;7086;48.116;11.580;2022-07-19T19:48:48;95584.00;;;31.50
14023;BMP180;7086;48.116;11.580;2022-07-19T19:51:30;95590.00;;;31.50
14023;BMP180;7086;48.116;11.580;2022-07-19T19:54:14;95580.00;;;31.40
14023;BMP180;7086;48.116;11.580;2022-07-19T19:56:46;95586.00;;;31.40
14023;BMP180;7086;48.116;11.580;2022-07-19T19:59:17;95588.00;;;31.30
14023;BMP180;7086;48.116;11.580;2022-07-19T20:01:47;95588.00;;;31.30
14023;BMP180;7086;48.116;11.580;2022-07-19T20:04:29;95585.00;;;31.20
14023;BMP180;7086;48.116;11.580;2022-07-19T20:07:11;95583.00;;;31.10
14023;BMP180;7086;48.116;11.580;2022-07-19T20:09:54;95578.00;;;31.10
14023;BMP180;7086;48.116;11.580;2022-07-19T20:12:30;95572.00;;;31.00
14023;BMP180;7086;48.116;11.580;2022-07-19T20:15:00;95574.00;;;30.90
14023;BMP180;7086;48.116;11.580;2022-07-19T20:17:38;95571.00;;;30.80
14023;BMP180;7086;48.116;11.580;2022-07-19T20:20:25;95574.00;;;30.80
14023;BMP180;7086;48.116;11.580;2022-07-19T20:23:07;95570.00;;;30.70
14023;BMP180;7086;48.116;11.580;2022-07-19T20:25:49;95570.00;;;30.60
14023;BMP180;7086;48.116;11.580;2022-07-19T20:37:02;95575.00;;;30.30
14023;BMP180;7086;48.116;11.580;2022-07-19T20:39:29;95577.00;;;30.30
14023;BMP180;7086;48.116;11.580;2022-07-19T20:42:01;95572.00;;;30.30
14023;BMP180;7086;48.116;11.580;2022-07-19T20:44:33;95573.00;;;30.20
14023;BMP180;7086;48.116;11.580;2022-07-19T20:47:01;95570.00;;;30.10
14023;BMP180;7086;48.116;11.580;2022-07-19T20:49:30;95573.00;;;30.10
14023;BMP180;7086;48.116;11.580;2022-07-19T20:52:03;95572.00;;;30.00
14023;BMP180;7086;48.116;11.580;2022-07-19T20:54:37;95574.00;;;30.00
14023;BMP180;7086;48.116;11.580;2022-07-19T20:57:06;95572.00;;;29.90
14023;BMP180;7086;48.116;11.580;2022-07-19T20:59:34;95575.00;;;29.90
14023;BMP180;7086;48.116;11.580;2022-07-19T21:02:11;95574.00;;;29.80
14023;BMP180;7086;48.116;11.580;2022-07-19T21:04:39;95570.00;;;29.70
14023;BMP180;7086;48.116;11.580;2022-07-19T21:07:11;95568.00;;;29.70
14023;BMP180;7086;48.116;11.580;2022-07-19T21:09:40;95566.00;;;29.60
14023;BMP180;7086;48.116;11.580;2022-07-19T21:12:09;95570.00;;;29.60
14023;BMP180;7086;48.116;11.580;2022-07-19T21:14:38;95565.00;;;29.50
14023;BMP180;7086;48.116;11.580;2022-07-19T21:17:19;95570.00;;;29.50
14023;BMP180;7086;48.116;11.580;2022-07-19T21:19:48;95569.00;;;29.40
14023;BMP180;7086;48.116;11.580;2022-07-19T21:24:57;95558.00;;;29.30
14023;BMP180;7086;48.116;11.580;2022-07-19T21:27:33;95562.00;;;29.30
14023;BMP180;7086;48.116;11.580;2022-07-19T21:30:03;95558.00;;;29.20
14023;BMP180;7086;48.116;11.580;2022-07-19T21:32:32;95562.00;;;29.20
14023;BMP180;7086;48.116;11.580;2022-07-19T21:34:59;95567.00;;;29.10
14023;BMP180;7086;48.116;11.580;2022-07-19T21:37:27;95565.00;;;29.10
14023;BMP180;7086;48.116;11.580;2022-07-19T21:39:56;95568.00;;;29.10
14023;BMP180;7086;48.116;11.580;2022-07-19T21:42:24;95567.00;;;29.00
14023;BMP180;7086;48.116;11.580;2022-07-19T21:44:52;95566.00;;;29.00
14023;BMP180;7086;48.116;11.580;2022-07-19T21:47:20;95567.00;;;28.90
14023;BMP180;7086;48.116;11.580;2022-07-19T21:49:48;95567.00;;;28.90
14023;BMP180;7086;48.116;11.580;2022-07-19T21:52:16;95571.00;;;28.90
14023;BMP180;7086;48.116;11.580;2022-07-19T21:54:45;95574.00;;;28.80
14023;BMP180;7086;48.116;11.580;2022-07-19T21:57:17;95567.00;;;28.80
14023;BMP180;7086;48.116;11.580;2022-07-19T21:59:46;95566.00;;;28.70
14023;BMP180;7086;48.116;11.580;2022-07-19T22:02:14;95570.00;;;28.70
14023;BMP180;7086;48.116;11.580;2022-07-19T22:04:44;95573.00;;;28.60
14023;BMP180;7086;48.116;11.580;2022-07-19T22:07:12;95565.00;;;28.60
14023;BMP180;7086;48.116;11.580;2022-07-19T22:09:40;95564.00;;;28.50
14023;BMP180;7086;48.116;11.580;2022-07-19T22:12:09;95558.00;;;28.40
14023;BMP180;7086;48.116;11.580;2022-07-19T22:14:39;95555.00;;;28.30
14023;BMP180;7086;48.116;11.580;2022-07-19T22:17:07;95556.00;;;28.30
14023;BMP180;7086;48.116;11.580;2022-07-19T22:19:35;95560.00;;;28.20
14023;BMP180;7086;48.116;11.580;2022-07-19T22:22:03;95556.00;;;28.20
14023;BMP180;7086;48.116;11.580;2022-07-19T22:24:31;95556.00;;;28.10
14023;BMP180;7086;48.116;11.580;2022-07-19T22:26:59;95561.00;;;28.00
14023;BMP180;7086;48.116;11.580;2022-07-19T22:29:27;95561.00;;;28.00
14023;BMP180;7086;48.116;11.580;2022-07-19T22:31:56;95563.00;;;28.00
14023;BMP180;7086;48.116;11.580;2022-07-19T22:34:24;95564.00;;;27.90
14023;BMP180;7086;48.116;11.580;2022-07-19T22:36:52;95556.00;;;27.90
14023;BMP180;7086;48.116;11.580;2022-07-19T22:39:20;95565.00;;;27.80
14023;BMP180;7086;48.116;11.580;2022-07-19T22:41:49;95563.00;;;27.80
14023;BMP180;7086;48.116;11.580;2022-07-19T22:44:16;95559.00;;;27.70
14023;BMP180;7086;48.116;11.580;2022-07-19T22:46:44;95564.00;;;27.70
14023;BMP180;7086;48.116;11.580;2022-07-19T22:49:13;95556.00;;;27.70
14023;BMP180;7086;48.116;11.580;2022-07-19T22:51:41;95559.00;;;27.70
14023;BMP180;7086;48.116;11.580;2022-07-19T22:54:09;95562.00;;;27.60
14023;BMP180;7086;48.116;11.580;2022-07-19T22:56:37;95553.00;;;27.60
14023;BMP180;7086;48.116;11.580;2022-07-19T22:59:05;95552.00;;;27.60
14023;BMP180;7086;48.116;11.580;2022-07-19T23:01:33;95553.00;;;27.60
14023;BMP180;7086;48.116;11.580;2022-07-19T23:04:00;95551.00;;;27.60
14023;BMP180;7086;48.116;11.580;2022-07-19T23:06:30;95548.00;;;27.60
14023;BMP180;7086;48.116;11.580;2022-07-19T23:08:57;95547.00;;;27.50
14023;BMP180;7086;48.116;11.580;2022-07-19T23:11:25;95545.00;;;27.50
14023;BMP180;7086;48.116;11.580;2022-07-19T23:13:53;95543.00;;;27.50
14023;BMP180;7086;48.116;11.580;2022-07-19T23:16:20;95537.00;;;27.50
14023;BMP180;7086;48.116;11.580;2022-07-19T23:18:48;95542.00;;;27.40
14023;BMP180;7086;48.116;11.580;2022-07-19T23:21:16;95534.00;;;27.40
14023;BMP180;7086;48.116;11.580;2022-07-19T23:23:45;95534.00;;;27.40
14023;BMP180;7086;48.116;11.580;2022-07-19T23:26:13;95529.00;;;27.40
14023;BMP180;7086;48.116;11.580;2022-07-19T23:28:40;95523.00;;;27.30
14023;BMP180;7086;48.116;11.580;2022-07-19T23:31:08;95534.00;;;27.30
14023;BMP180;7086;48.116;11.580;2022-07-19T23:33:36;95527.00;;;27.30
14023;BMP180;7086;48.116;11.580;2022-07-19T23:36:04;95530.00;;;27.30
14023;BMP180;7086;48.116;11.580;2022-07-19T23:38:32;95533.00;;;27.20
14023;BMP180;7086;48.116;11.580;2022-07-19T23:41:02;95541.00;;;27.20
14023;BMP180;7086;48.116;11.580;2022-07-19T23:43:30;95536.00;;;27.10
14023;BMP180;7086;48.116;11.580;2022-07-19T23:45:58;95532.00;;;27.10
14023;BMP180;7086;48.116;11.580;2022-07-19T23:48:26;95529.00;;;27.10
14023;BMP180;7086;48.116;11.580;2022-07-19T23:50:53;95532.00;;;27.10
14023;BMP180;7086;48.116;11.580;2022-07-19T23:53:21;95531.00;;;27.00
14023;BMP180;7086;48.116;11.580;2022-07-19T23:55:50;95533.00;;;27.00
14023;BMP180;7086;48.116;11.580;2022-07-19T23:58:19;95526.00;;;26.90
